Time;durP1;ratioP1;P1;durP2;ratioP2;P2;SDS_P1;SDS_P2;PMS_P1;PMS_P2;Temp;Humidity;BMP_temperature;BMP_pressure;BME280_temperature;BME280_humidity;BME280_pressure;Samples;Min_cycle;Max_cycle;Signal;HPM_P1;HPM_P2
2022/09/18 00:00:39;;;;;;;3.95;2.20;;;;;;;21.80;62.68;98190.84;5093378;28;20047;-78
2022/09/18 00:03:04;;;;;;;5.50;2.47;;;;;;;21.72;63.00;98186.09;5093459;28;20543;-78
2022/09/18 00:05:30;;;;;;;6.00;2.70;;;;;;;21.16;63.19;98116.72;5093239;28;20484;-79
2022/09/18 00:07:55;;;;;;;6.60;2.35;;;;;;;21.41;63.33;98156.00;5093404;28;20024;-78
2022/09/18 00:10:20;;;;;;;9.75;2.80;;;;;;;21.48;63.28;98137.69;5091789;28;20024;-79
2022/09/18 00:12:46;;;;;;;9.18;3.47;;;;;;;21.48;63.38;98132.31;5093168;28;20489;-79
2022/09/18 00:15:11;;;;;;;8.07;3.08;;;;;;;21.32;63.35;98125.47;5091916;28;20488;-77
2022/09/18 00:17:37;;;;;;;7.63;2.97;;;;;;;21.43;63.17;98143.09;5093147;28;20019;-78
2022/09/18 00:20:03;;;;;;;7.93;3.13;;;;;;;21.62;63.46;98168.19;5092983;28;20055;-79
2022/09/18 00:22:29;;;;;;;11.88;6.43;;;;;;;21.56;63.37;98169.31;5092957;28;20032;-79
2022/09/18 00:24:54;;;;;;;6.25;3.25;;;;;;;21.57;63.43;98170.94;5092803;28;20039;-79
2022/09/18 00:27:20;;;;;;;8.77;2.80;;;;;;;21.29;63.55;98159.06;5092702;28;20024;-78
2022/09/18 00:29:45;;;;;;;4.07;2.70;;;;;;;21.74;63.42;98190.09;5092822;28;20035;-78
2022/09/18 00:32:11;;;;;;;5.13;2.80;;;;;;;21.36;63.31;98118.47;5092930;28;20030;-79
2022/09/18 00:34:38;;;;;;;5.50;2.60;;;;;;;21.65;63.26;98146.13;5091477;28;20027;-79
2022/09/18 00:37:03;;;;;;;5.25;2.13;;;;;;;21.08;63.27;98067.13;5092874;28;20024;-79
2022/09/18 00:39:29;;;;;;;6.85;2.30;;;;;;;21.41;63.34;98107.69;5092779;28;20085;-79
2022/09/18 00:41:54;;;;;;;4.07;2.33;;;;;;;21.73;63.49;98169.69;5091281;28;20027;-79
2022/09/18 00:44:33;;;;;;;4.22;2.25;;;;;;;21.41;63.55;98121.09;5092533;28;20111;-78
2022/09/18 00:47:41;;;;;;;5.65;2.83;;;;;;;21.49;63.81;98126.66;5092640;28;20507;-79
2022/09/18 00:50:13;;;;;;;6.07;3.65;;;;;;;21.71;63.60;98160.31;5088019;28;20120;-79
2022/09/18 00:52:47;;;;;;;4.25;2.50;;;;;;;21.40;63.33;98111.44;5091010;28;20032;-79
2022/09/18 00:55:13;;;;;;;4.40;2.50;;;;;;;21.66;62.92;98153.13;5090815;28;20012;-79
2022/09/18 00:57:47;;;;;;;4.40;2.17;;;;;;;21.63;62.81;98156.38;5092447;28;20024;-79
2022/09/18 01:00:13;;;;;;;3.30;2.10;;;;;;;20.98;62.59;98055.69;5091922;28;20039;-79
2022/09/18 01:02:41;;;;;;;3.95;2.13;;;;;;;21.37;62.90;98106.63;5092363;28;20028;-79
2022/09/18 01:05:08;;;;;;;4.43;2.38;;;;;;;21.22;62.55;98084.22;5090838;28;20021;-79
2022/09/18 01:07:51;;;;;;;5.10;2.40;;;;;;;21.69;62.83;98167.88;5092101;28;20023;-79
2022/09/18 01:10:51;;;;;;;4.30;2.00;;;;;;;21.72;62.67;98159.22;5102781;28;20038;-77
2022/09/18 01:13:32;;;;;;;5.22;2.53;;;;;;;21.71;62.51;98155.75;5106858;28;20024;-78
2022/09/18 01:16:24;;;;;;;5.82;2.30;;;;;;;21.74;62.44;98157.06;5092373;28;20028;-78
2022/09/18 01:19:16;;;;;;;5.32;2.60;;;;;;;21.72;62.74;98156.53;5092663;28;20476;-80
2022/09/18 01:21:53;;;;;;;8.32;3.00;;;;;;;21.30;62.85;98090.84;5092178;28;20444;-78
2022/09/18 01:24:42;;;;;;;8.35;3.20;;;;;;;21.66;63.11;98147.75;5091795;28;20035;-79
2022/09/18 01:27:24;;;;;;;4.97;2.60;;;;;;;21.42;63.20;98126.19;5091817;28;20019;-79
2022/09/18 01:29:52;;;;;;;4.72;2.33;;;;;;;21.60;62.85;98161.50;5091654;28;20023;-79
2022/09/18 01:32:39;;;;;;;4.88;2.58;;;;;;;21.09;62.69;98067.94;5091587;28;20111;-79
2022/09/18 01:35:20;;;;;;;6.03;2.47;;;;;;;21.61;63.05;98152.38;5091641;28;20042;-79
2022/09/18 01:38:05;;;;;;;5.50;2.55;;;;;;;21.55;62.88;98154.25;5090267;28;20016;-79
2022/09/18 01:40:37;;;;;;;6.18;2.60;;;;;;;20.92;63.04;98061.09;5091529;28;20016;-79
2022/09/18 01:43:07;;;;;;;;;;;;;;;21.27;64.24;98155.84;5091976;28;20099;-79
2022/09/18 01:45:36;;;;;;;4.78;2.42;;;;;;;21.38;63.14;98145.84;5091498;28;20410;-79
2022/09/18 01:48:06;;;;;;;7.15;2.50;;;;;;;20.91;63.05;98072.13;5091377;28;20035;-79
2022/09/18 01:50:37;;;;;;;6.50;3.20;;;;;;;21.44;63.36;98153.56;5091509;28;20041;-79
2022/09/18 01:53:02;;;;;;;7.22;2.90;;;;;;;21.41;63.43;98148.75;5090301;28;20032;-79
2022/09/18 01:55:29;;;;;;;5.57;2.60;;;;;;;20.65;63.45;98035.81;5091409;28;20189;-80
2022/09/18 01:58:19;;;;;;;5.97;3.10;;;;;;;21.40;63.61;98155.19;5091450;28;20020;-79
2022/09/18 02:00:53;;;;;;;3.67;2.40;;;;;;;21.13;63.68;98118.09;5091258;28;20036;-78
2022/09/18 02:03:26;;;;;;;4.07;2.45;;;;;;;21.43;63.16;98154.63;5090086;28;20122;-78
2022/09/18 02:05:58;;;;;;;4.32;2.30;;;;;;;20.78;62.83;98046.72;5091754;28;20400;-78
2022/09/18 02:08:30;;;;;;;4.45;2.42;;;;;;;20.90;63.03;98063.28;5095582;28;20047;-78
2022/09/18 02:11:05;;;;;;;8.50;3.17;;;;;;;21.23;62.81;98126.09;5094182;28;20471;-77
2022/09/18 02:13:39;;;;;;;6.75;2.80;;;;;;;21.31;62.99;98139.97;5094134;28;20020;-79
2022/09/18 02:16:10;;;;;;;3.78;2.38;;;;;;;20.73;62.73;98054.78;5095281;28;20028;-78
2022/09/18 02:18:45;;;;;;;3.45;1.90;;;;;;;21.16;62.44;98130.94;5093983;28;20020;-79
2022/09/18 02:21:15;;;;;;;4.75;1.77;;;;;;;21.40;62.39;98167.84;5095570;28;20073;-79
2022/09/18 02:23:41;;;;;;;5.32;1.90;;;;;;;20.63;62.12;98101.25;5094088;28;20389;-79
2022/09/18 02:26:10;;;;;;;3.78;1.80;;;;;;;20.98;62.22;98133.50;5095314;28;20024;-78
2022/09/18 02:28:38;;;;;;;3.90;1.75;;;;;;;20.83;62.08;98121.81;5095245;28;20028;-77
2022/09/18 02:31:04;;;;;;;3.83;1.73;;;;;;;21.06;62.44;98186.59;5094936;28;20035;-79
2022/09/18 02:33:32;;;;;;;5.20;1.80;;;;;;;20.98;62.57;98195.22;5095057;28;20488;-78
2022/09/18 02:36:22;;;;;;;5.82;1.90;;;;;;;20.70;62.74;98159.16;5095014;28;20077;-78
2022/09/18 02:38:59;;;;;;;2.97;1.70;;;;;;;20.92;62.71;98203.31;5095011;28;20020;-79
2022/09/18 02:41:28;;;;;;;3.45;2.00;;;;;;;20.88;62.96;98209.50;5095199;28;20488;-79
2022/09/18 02:44:01;;;;;;;4.63;1.98;;;;;;;20.70;62.85;98177.94;5095124;28;20480;-77
2022/09/18 02:46:55;;;;;;;6.68;2.20;;;;;;;19.80;63.02;98034.13;5094648;28;20023;-79
2022/09/18 02:49:31;;;;;;;4.65;1.90;;;;;;;20.85;63.07;98199.34;5093408;28;20420;-79
2022/09/18 02:52:21;;;;;;;2.78;2.25;;;;;;;20.20;63.16;98118.91;5094658;28;20031;-79
2022/09/18 02:54:54;;;;;;;4.18;2.00;;;;;;;20.56;63.72;98193.81;5094805;28;20496;-78
2022/09/18 02:57:33;;;;;;;4.28;2.20;;;;;;;19.81;63.62;98075.91;5094754;28;20031;-79
2022/09/18 03:00:00;;;;;;;4.47;2.20;;;;;;;19.99;63.92;98112.00;5094639;28;20032;-78
2022/09/18 03:02:26;;;;;;;3.95;2.40;;;;;;;20.21;63.97;98143.81;5094582;28;20107;-78
2022/09/18 03:04:52;;;;;;;5.95;2.72;;;;;;;20.50;63.90;98206.44;5094937;28;20051;-79
2022/09/18 03:07:17;;;;;;;5.75;2.75;;;;;;;20.29;64.23;98178.09;5094556;28;20052;-79
2022/09/18 03:09:43;;;;;;;6.20;2.65;;;;;;;20.10;63.99;98137.69;5094289;28;20552;-78
2022/09/18 03:12:09;;;;;;;7.72;3.08;;;;;;;19.97;64.28;98154.31;5094224;28;20032;-79
2022/09/18 03:14:35;;;;;;;8.73;3.08;;;;;;;20.11;64.43;98165.31;5094112;28;20024;-79
2022/09/18 03:17:01;;;;;;;7.65;3.20;;;;;;;19.74;64.70;98133.50;5094245;28;20069;-77
2022/09/18 03:19:27;;;;;;;6.57;3.60;;;;;;;20.10;64.82;98219.97;5093329;28;20024;-78
2022/09/18 03:21:52;;;;;;;4.00;2.75;;;;;;;19.60;65.09;98142.09;5092952;28;20020;-79
2022/09/18 03:24:20;;;;;;;6.10;3.67;;;;;;;20.16;65.14;98227.72;5094273;28;20020;-78
2022/09/18 03:26:46;;;;;;;4.78;3.55;;;;;;;19.78;65.07;98164.03;5092947;28;20035;-79
2022/09/18 03:29:13;;;;;;;5.35;3.15;;;;;;;20.33;65.07;98243.50;5094339;28;20466;-77
2022/09/18 03:31:38;;;;;;;6.63;3.63;;;;;;;19.85;65.05;98199.38;5093151;28;20030;-77
2022/09/18 03:34:04;;;;;;;5.43;3.75;;;;;;;20.37;65.13;98249.09;5094102;28;20028;-77
2022/09/18 03:36:30;;;;;;;6.63;3.67;;;;;;;20.04;65.21;98203.06;5094117;28;20453;-78
2022/09/18 03:38:55;;;;;;;6.18;3.65;;;;;;;20.13;65.19;98244.34;5093812;28;20454;-79
2022/09/18 03:41:21;;;;;;;5.55;3.85;;;;;;;20.16;65.11;98225.03;5093645;28;20016;-79
2022/09/18 03:43:47;;;;;;;5.72;3.90;;;;;;;19.76;65.22;98163.50;5093587;28;20024;-80
2022/09/18 03:46:13;;;;;;;4.22;3.80;;;;;;;20.41;65.26;98279.69;5093663;28;20102;-79
2022/09/18 03:48:39;;;;;;;4.60;4.10;;;;;;;20.20;65.18;98260.13;5093768;28;20058;-79
2022/09/18 03:51:04;;;;;;;8.02;3.90;;;;;;;20.24;65.32;98240.56;5093582;28;20024;-79
2022/09/18 03:53:30;;;;;;;5.50;3.97;;;;;;;20.23;65.02;98260.41;5092301;28;20034;-79
2022/09/18 03:55:55;;;;;;;5.35;4.55;;;;;;;20.07;65.28;98244.63;5092329;28;20016;-79
2022/09/18 03:58:20;;;;;;;6.53;5.32;;;;;;;19.67;65.35;98201.53;5092228;28;20477;-79
2022/09/18 04:00:46;;;;;;;8.98;5.72;;;;;;;20.27;65.41;98307.03;5091952;28;20085;-78
2022/09/18 04:03:11;;;;;;;7.72;6.85;;;;;;;20.21;65.50;98318.03;5093538;28;20028;-79
2022/09/18 04:05:37;;;;;;;8.38;7.15;;;;;;;19.51;65.75;98229.34;5093416;28;20488;-79
2022/09/18 04:08:04;;;;;;;10.55;9.45;;;;;;;19.89;66.34;98335.16;5093419;28;20016;-79
2022/09/18 04:10:30;;;;;;;10.35;9.30;;;;;;;19.75;66.63;98339.44;5093323;28;20107;-78
2022/09/18 04:12:56;;;;;;;12.15;9.60;;;;;;;19.22;66.50;98263.03;5093171;28;20024;-79
2022/09/18 04:15:21;;;;;;;16.42;12.40;;;;;;;19.96;66.97;98415.28;5092000;28;20020;-79
2022/09/18 04:17:47;;;;;;;16.38;14.70;;;;;;;19.73;66.91;98397.81;5093146;28;20015;-80
2022/09/18 04:20:13;;;;;;;21.35;15.18;;;;;;;19.91;67.08;98455.44;5093258;28;20048;-79
2022/09/18 04:22:38;;;;;;;17.88;15.50;;;;;;;19.40;67.24;98385.69;5092932;28;20544;-79
2022/09/18 04:25:04;;;;;;;18.40;15.35;;;;;;;19.88;67.32;98472.88;5093278;28;20458;-79
2022/09/18 04:27:29;;;;;;;19.88;17.13;;;;;;;18.93;67.45;98351.75;5092696;28;20028;-79
2022/09/18 04:29:55;;;;;;;23.60;17.42;;;;;;;19.60;68.02;98450.03;5091719;28;20403;-79
2022/09/18 04:32:20;;;;;;;20.77;17.10;;;;;;;19.29;68.40;98416.13;5092781;28;20028;-79
2022/09/18 04:34:46;;;;;;;25.95;16.45;;;;;;;18.97;68.69;98368.91;5091288;28;20507;-79
2022/09/18 04:37:11;;;;;;;22.80;16.95;;;;;;;19.56;68.98;98467.69;5092503;28;20024;-79
2022/09/18 04:39:37;;;;;;;23.70;16.73;;;;;;;19.82;69.06;98492.66;5092590;28;20023;-79
2022/09/18 04:42:03;;;;;;;21.42;15.05;;;;;;;19.85;69.27;98500.19;5092742;28;20072;-79
2022/09/18 04:44:28;;;;;;;19.15;16.20;;;;;;;19.26;69.20;98395.22;5091326;28;20020;-79
2022/09/18 04:46:54;;;;;;;18.05;15.18;;;;;;;19.48;69.38;98421.84;5091176;28;20023;-79
2022/09/18 04:49:19;;;;;;;22.33;15.70;;;;;;;19.67;69.67;98465.84;5091186;28;20024;-79
2022/09/18 04:51:45;;;;;;;20.63;16.50;;;;;;;19.42;69.41;98420.22;5090730;28;20019;-79
2022/09/18 04:54:11;;;;;;;19.98;16.55;;;;;;;19.54;69.54;98418.94;5092494;28;20099;-79
2022/09/18 04:56:36;;;;;;;22.92;18.30;;;;;;;19.60;69.15;98420.56;5092401;28;20028;-79
2022/09/18 04:59:02;;;;;;;19.13;16.15;;;;;;;19.97;69.47;98476.63;5090993;28;20035;-79
2022/09/18 05:01:28;;;;;;;18.75;15.02;;;;;;;19.88;69.33;98462.16;5092494;28;20039;-79
2022/09/18 05:03:54;;;;;;;20.48;15.13;;;;;;;20.16;69.09;98540.47;5092283;28;20020;-79
2022/09/18 05:06:19;;;;;;;18.15;14.90;;;;;;;20.29;68.77;98519.31;5091005;28;20569;-78
2022/09/18 05:08:45;;;;;;;16.20;11.90;;;;;;;19.64;68.12;98427.00;5090952;28;20522;-80
2022/09/18 05:11:10;;;;;;;12.50;11.20;;;;;;;19.82;67.61;98462.41;5090728;28;20019;-79
2022/09/18 05:13:36;;;;;;;10.98;9.85;;;;;;;20.04;67.01;98489.78;5090822;28;20024;-79
2022/09/18 05:16:01;;;;;;;8.85;6.88;;;;;;;20.26;65.75;98549.34;5090694;28;20515;-79
2022/09/18 05:18:26;;;;;;;6.82;5.00;;;;;;;19.59;64.58;98429.66;5091808;28;20012;-79
2022/09/18 05:20:53;;;;;;;4.10;3.50;;;;;;;19.83;62.54;98485.44;5092451;28;20507;-79
2022/09/18 05:23:19;;;;;;;5.88;3.33;;;;;;;19.60;61.27;98457.25;5092119;28;20024;-79
2022/09/18 05:25:44;;;;;;;5.72;3.13;;;;;;;19.66;60.99;98473.06;5090671;28;20031;-78
2022/09/18 05:28:12;;;;;;;4.60;2.92;;;;;;;19.97;60.60;98506.09;5091941;28;20095;-79
2022/09/18 05:30:37;;;;;;;3.85;2.45;;;;;;;20.09;59.44;98543.41;5091818;28;20028;-78
2022/09/18 05:33:08;;;;;;;3.35;2.55;;;;;;;20.05;59.22;98547.66;5091821;28;20107;-79
2022/09/18 05:35:35;;;;;;;5.80;3.33;;;;;;;18.01;59.07;98230.16;5091626;28;20027;-79
2022/09/18 05:38:01;;;;;;;5.75;2.13;;;;;;;19.84;58.37;98498.56;5091658;28;20492;-78
2022/09/18 05:40:31;;;;;;;5.13;2.13;;;;;;;20.19;57.76;98564.88;5091549;28;20018;-78
2022/09/18 05:42:57;;;;;;;5.97;2.40;;;;;;;20.27;57.69;98559.00;5091223;28;20027;-78
2022/09/18 05:45:23;;;;;;;2.65;1.90;;;;;;;20.35;57.23;98564.91;5090845;28;20039;-78
2022/09/18 05:47:56;;;;;;;5.07;1.73;;;;;;;20.28;55.47;98584.72;5091680;28;20473;-78
2022/09/18 05:50:23;;;;;;;3.75;1.70;;;;;;;20.18;55.22;98559.78;5090147;28;20024;-79
2022/09/18 05:53:06;;;;;;;3.03;1.20;;;;;;;19.72;53.11;98514.06;5090221;28;20068;-79
2022/09/18 05:55:32;;;;;;;5.22;1.50;;;;;;;19.52;53.63;98497.88;5091567;28;20016;-78
2022/09/18 05:58:00;;;;;;;4.30;1.45;;;;;;;19.51;53.73;98523.03;5090016;28;20047;-80
2022/09/18 06:00:28;;;;;;;2.15;1.30;;;;;;;19.83;53.26;98566.59;5091379;28;20036;-79
2022/09/18 06:03:06;;;;;;;2.65;1.15;;;;;;;19.85;52.22;98590.44;5091548;28;20052;-80
2022/09/18 06:05:33;;;;;;;2.78;1.10;;;;;;;19.20;52.61;98503.31;5091382;28;20035;-80
2022/09/18 06:08:04;;;;;;;3.97;1.27;;;;;;;19.20;52.03;98512.16;5091191;28;20030;-79
2022/09/18 06:10:31;;;;;;;1.67;1.17;;;;;;;19.72;51.86;98607.00;5089720;28;20024;-79
2022/09/18 06:13:05;;;;;;;1.33;0.80;;;;;;;19.71;51.02;98594.66;5089792;28;20024;-79
2022/09/18 06:15:32;;;;;;;2.50;1.30;;;;;;;19.78;51.56;98630.88;5091338;28;20020;-79
2022/09/18 06:17:57;;;;;;;1.23;1.10;;;;;;;19.46;51.64;98603.34;5090002;28;20093;-79
2022/09/18 06:20:23;;;;;;;2.75;1.27;;;;;;;19.40;51.50;98589.13;5091363;28;20020;-79
2022/09/18 06:22:48;;;;;;;1.98;0.98;;;;;;;19.68;51.19;98618.22;5091194;28;20020;-79
2022/09/18 06:25:18;;;;;;;1.73;1.10;;;;;;;19.36;51.20;98555.91;5091253;28;20020;-79
2022/09/18 06:27:43;;;;;;;1.77;1.10;;;;;;;19.36;51.38;98555.91;5091241;28;20428;-78
2022/09/18 06:30:09;;;;;;;1.23;1.02;;;;;;;19.54;50.51;98610.91;5091179;28;20020;-79
2022/09/18 06:32:34;;;;;;;2.30;1.10;;;;;;;19.64;50.22;98622.50;5089793;28;20496;-79
2022/09/18 06:35:00;;;;;;;3.58;1.20;;;;;;;19.34;49.83;98596.31;5089864;28;20020;-78
2022/09/18 06:37:25;;;;;;;3.80;0.95;;;;;;;19.48;49.06;98603.88;5091085;28;20012;-79
2022/09/18 06:39:51;;;;;;;3.13;0.95;;;;;;;19.73;48.95;98635.38;5091159;28;20016;-79
2022/09/18 06:42:16;;;;;;;1.50;0.80;;;;;;;19.83;48.37;98695.19;5089859;28;20487;-79
2022/09/18 06:44:42;;;;;;;3.10;1.10;;;;;;;19.67;48.35;98642.59;5091058;28;20020;-79
2022/09/18 06:47:07;;;;;;;1.48;0.65;;;;;;;19.56;47.86;98636.38;5090790;28;20408;-79
2022/09/18 06:49:33;;;;;;;3.50;0.90;;;;;;;19.64;47.74;98625.16;5090919;28;20055;-79
2022/09/18 06:51:58;;;;;;;1.50;0.82;;;;;;;19.58;47.45;98649.50;5089579;28;20073;-79
2022/09/18 06:54:24;;;;;;;2.10;0.60;;;;;;;19.51;47.12;98647.00;5093484;28;20020;-79
2022/09/18 06:56:49;;;;;;;2.13;0.90;;;;;;;19.57;47.30;98653.25;5093831;28;20023;-79
2022/09/18 06:59:15;;;;;;;4.80;1.00;;;;;;;19.27;47.25;98594.88;5093212;28;20020;-80
2022/09/18 07:01:40;;;;;;;1.90;1.02;;;;;;;19.75;46.48;98689.50;5094549;28;20032;-80
2022/09/18 07:04:06;;;;;;;1.85;0.77;;;;;;;19.53;46.78;98655.63;5094559;28;20080;-79
2022/09/18 07:06:31;;;;;;;2.05;0.68;;;;;;;18.58;46.68;98498.56;5093130;28;20024;-79
2022/09/18 07:08:57;;;;;;;2.47;0.93;;;;;;;19.93;45.74;98731.94;5094358;28;20500;-79
2022/09/18 07:11:22;;;;;;;3.92;0.60;;;;;;;19.43;45.66;98658.19;5093149;28;20027;-79
2022/09/18 07:13:48;;;;;;;4.32;0.80;;;;;;;19.64;45.65;98675.25;5094462;28;20031;-79
2022/09/18 07:16:14;;;;;;;1.77;0.70;;;;;;;19.96;45.60;98739.47;5094330;28;20024;-79
2022/09/18 07:18:40;;;;;;;2.70;0.68;;;;;;;19.82;45.47;98687.41;5094323;28;20545;-79
2022/09/18 07:21:05;;;;;;;3.08;0.80;;;;;;;20.18;45.47;98775.00;5094283;28;20020;-77
2022/09/18 07:23:32;;;;;;;1.45;0.55;;;;;;;19.93;45.09;98722.03;5092876;28;20024;-79
2022/09/18 07:26:02;;;;;;;1.73;0.60;;;;;;;19.90;44.37;98697.63;5094277;28;20024;-79
2022/09/18 07:28:28;;;;;;;1.88;0.73;;;;;;;20.11;44.14;98750.31;5094008;28;20122;-77
2022/09/18 07:30:54;;;;;;;1.67;0.77;;;;;;;20.26;43.70;98749.59;5092770;28;20444;-79
2022/09/18 07:33:19;;;;;;;5.10;0.60;;;;;;;20.15;43.65;98758.63;5092640;28;20020;-78
2022/09/18 07:35:45;;;;;;;3.42;0.80;;;;;;;19.55;43.52;98656.19;5092590;28;20158;-79
2022/09/18 07:38:10;;;;;;;4.13;0.80;;;;;;;19.67;42.65;98656.78;5092654;28;20044;-79
2022/09/18 07:40:36;;;;;;;2.75;0.68;;;;;;;19.88;42.89;98705.13;5093920;28;20519;-79
2022/09/18 07:43:07;;;;;;;1.92;0.88;;;;;;;20.33;42.67;98779.66;5093873;28;20099;-79
2022/09/18 07:45:33;;;;;;;2.28;0.60;;;;;;;20.11;42.33;98739.59;5094052;28;20507;-80
2022/09/18 07:48:04;;;;;;;2.35;0.70;;;;;;;20.22;41.74;98791.38;5092165;28;20609;-79
2022/09/18 07:50:30;;;;;;;3.77;0.77;;;;;;;19.64;42.22;98715.41;5093529;28;20024;-79
2022/09/18 07:52:58;;;;;;;2.08;0.80;;;;;;;19.64;41.74;98702.81;5093281;28;20265;-79
2022/09/18 07:55:25;;;;;;;4.07;0.70;;;;;;;20.29;41.72;98790.09;5092104;28;20480;-79
2022/09/18 07:57:56;;;;;;;0.88;0.68;;;;;;;19.76;41.05;98740.13;5093410;28;20566;-78
2022/09/18 08:00:23;;;;;;;1.50;0.63;;;;;;;19.81;40.83;98766.97;5091925;28;20067;-79
2022/09/18 08:02:48;;;;;;;10.60;1.17;;;;;;;20.19;40.56;98830.22;5093314;28;20415;-79
2022/09/18 08:05:13;;;;;;;3.10;0.80;;;;;;;20.06;40.99;98800.34;5091786;28;20107;-79
2022/09/18 08:07:39;;;;;;;3.58;0.90;;;;;;;20.11;40.67;98821.84;5092975;28;20020;-79
2022/09/18 08:10:06;;;;;;;2.05;1.13;;;;;;;20.33;40.35;98822.53;5093132;28;20412;-79
2022/09/18 08:12:32;;;;;;;1.13;0.90;;;;;;;20.07;40.47;98777.88;5091916;28;20020;-79
2022/09/18 08:14:58;;;;;;;3.33;0.80;;;;;;;19.89;40.30;98723.63;5093274;28;20533;-79
2022/09/18 08:17:24;;;;;;;4.10;0.98;;;;;;;20.31;40.32;98779.09;5091906;28;20023;-79
2022/09/18 08:19:49;;;;;;;3.33;0.80;;;;;;;20.31;40.41;98774.53;5091937;28;20016;-79
2022/09/18 08:22:15;;;;;;;4.85;0.90;;;;;;;19.91;40.24;98708.09;5091814;28;20016;-79
2022/09/18 08:24:41;;;;;;;2.67;0.75;;;;;;;20.10;39.54;98731.81;5091759;28;20020;-79
2022/09/18 08:27:06;;;;;;;2.80;0.80;;;;;;;20.40;39.46;98753.44;5092923;28;20082;-79
2022/09/18 08:29:31;;;;;;;2.22;0.88;;;;;;;19.07;39.82;98520.63;5093098;28;20024;-79
2022/09/18 08:31:57;;;;;;;2.05;0.85;;;;;;;20.84;39.43;98802.19;5092592;28;20107;-79
2022/09/18 08:34:22;;;;;;;4.10;0.90;;;;;;;21.14;39.29;98840.94;5092624;28;20044;-79
2022/09/18 08:36:48;;;;;;;2.10;1.00;;;;;;;20.97;39.39;98806.25;5092847;28;20048;-79
2022/09/18 08:39:13;;;;;;;1.75;0.90;;;;;;;20.49;39.40;98775.19;5092901;28;20027;-79
2022/09/18 08:41:48;;;;;;;2.63;0.70;;;;;;;20.96;39.51;98836.06;5091348;28;20012;-80
2022/09/18 08:44:23;;;;;;;0.95;0.70;;;;;;;20.73;39.63;98839.94;5092862;28;20067;-79
2022/09/18 08:47:11;;;;;;;2.60;0.88;;;;;;;20.81;40.06;98832.25;5092474;28;20024;-79
2022/09/18 08:49:40;;;;;;;1.45;0.52;;;;;;;20.58;40.31;98798.56;5092330;28;20553;-79
2022/09/18 08:52:13;;;;;;;2.00;0.60;;;;;;;20.79;39.68;98855.00;5092265;28;20055;-79
2022/09/18 08:55:03;;;;;;;2.97;0.73;;;;;;;20.79;40.21;98841.59;5091136;28;20572;-79
2022/09/18 08:57:40;;;;;;;3.05;0.90;;;;;;;20.76;39.40;98834.06;5087062;28;20040;-79
2022/09/18 09:00:10;;;;;;;2.40;0.70;;;;;;;20.85;39.87;98832.53;5092290;28;20047;-78
2022/09/18 09:02:41;;;;;;;3.78;0.90;;;;;;;20.23;39.62;98801.84;5091246;28;20048;-79
2022/09/18 09:05:31;;;;;;;2.65;1.00;;;;;;;20.39;39.75;98855.56;5092689;28;20095;-79
2022/09/18 09:08:20;;;;;;;2.05;0.85;;;;;;;20.05;40.26;98829.03;5092446;28;20504;-79
2022/09/18 09:10:57;;;;;;;1.75;1.00;;;;;;;20.31;40.45;98864.88;5089088;28;20029;-78
2022/09/18 09:13:39;;;;;;;2.70;0.80;;;;;;;20.49;40.08;98864.50;5091988;28;20036;-77
2022/09/18 09:16:13;;;;;;;1.73;0.93;;;;;;;20.47;39.76;98852.41;5091708;28;20042;-78
2022/09/18 09:18:42;;;;;;;1.13;0.75;;;;;;;20.69;39.82;98871.03;5090865;28;20479;-79
2022/09/18 09:21:14;;;;;;;4.50;0.82;;;;;;;20.33;39.60;98838.63;5091958;28;20024;-79
2022/09/18 09:24:01;;;;;;;2.00;0.90;;;;;;;20.52;39.55;98860.50;5091687;28;20017;-79
2022/09/18 09:26:31;;;;;;;1.67;0.80;;;;;;;20.16;40.25;98822.69;5091903;28;20030;-79
2022/09/18 09:29:05;;;;;;;0.85;0.77;;;;;;;20.08;40.10;98825.84;5091929;28;20031;-79
2022/09/18 09:31:45;;;;;;;2.15;1.00;;;;;;;20.42;40.32;98874.66;5090458;28;20031;-79
2022/09/18 09:34:15;;;;;;;1.33;0.90;;;;;;;20.47;40.50;98855.91;5091811;28;20051;-79
2022/09/18 09:36:45;;;;;;;1.00;0.90;;;;;;;20.70;40.26;98873.47;5090534;28;20031;-79
2022/09/18 09:39:33;;;;;;;2.55;0.90;;;;;;;20.89;40.30;98880.03;5091863;28;20020;-79
2022/09/18 09:42:09;;;;;;;2.13;1.20;;;;;;;20.46;40.03;98789.13;5088579;28;20055;-79
2022/09/18 09:45:02;;;;;;;2.78;1.08;;;;;;;21.09;39.59;98875.81;5090788;28;20480;-79
2022/09/18 09:47:55;;;;;;;1.10;1.00;;;;;;;21.14;39.55;98871.28;5088143;28;20040;-79
2022/09/18 09:50:31;;;;;;;2.00;1.15;;;;;;;21.45;39.13;98876.78;5091930;28;20074;-79
2022/09/18 09:53:01;;;;;;;0.90;0.80;;;;;;;21.07;38.28;98811.66;5091624;28;20047;-79
2022/09/18 09:55:36;;;;;;;1.05;0.80;;;;;;;21.13;37.62;98858.13;5090598;28;20040;-79
2022/09/18 09:58:43;;;;;;;2.35;0.90;;;;;;;21.23;37.35;98904.63;5091506;28;20116;-79
2022/09/18 10:01:20;;;;;;;1.30;0.95;;;;;;;21.37;37.72;98896.91;5088406;28;20130;-79
2022/09/18 10:03:45;;;;;;;1.05;0.70;;;;;;;21.74;37.09;98898.63;5091787;28;20023;-79
2022/09/18 10:06:32;;;;;;;3.33;1.13;;;;;;;22.16;35.70;98898.41;5089968;28;20466;-79
2022/09/18 10:09:45;;;;;;;2.80;1.02;;;;;;;22.13;35.70;98888.19;5091170;28;20035;-79
2022/09/18 10:12:38;;;;;;;2.53;1.00;;;;;;;21.97;35.56;98836.28;5089700;28;20044;-79
2022/09/18 10:15:16;;;;;;;3.67;1.05;;;;;;;21.79;35.92;98834.13;5091312;28;20032;-78
2022/09/18 10:17:44;;;;;;;2.95;1.00;;;;;;;21.87;36.39;98852.41;5089858;28;20473;-79
2022/09/18 10:20:20;;;;;;;2.22;0.85;;;;;;;22.16;35.84;98895.72;5089896;28;20020;-79
2022/09/18 10:22:46;;;;;;;1.38;0.82;;;;;;;21.76;36.11;98846.22;5091411;28;20389;-78
2022/09/18 10:25:36;;;;;;;2.90;0.90;;;;;;;22.11;35.11;98804.31;5089981;28;20477;-79
2022/09/18 10:28:02;;;;;;;2.30;0.75;;;;;;;22.75;34.89;98885.16;5093216;28;20024;-79
2022/09/18 10:30:28;;;;;;;3.58;0.90;;;;;;;22.61;33.93;98862.59;5095109;28;20081;-79
2022/09/18 10:32:53;;;;;;;0.90;0.85;;;;;;;23.20;34.30;98886.13;5093728;28;20020;-77
2022/09/18 10:35:28;;;;;;;3.03;1.05;;;;;;;23.43;33.57;98907.03;5093841;28;20507;-79
2022/09/18 10:37:54;;;;;;;1.60;1.15;;;;;;;23.38;33.55;98855.06;5095189;28;20080;-79
2022/09/18 10:40:30;;;;;;;8.80;1.13;;;;;;;24.01;32.69;98904.56;5095129;28;20020;-78
2022/09/18 10:42:55;;;;;;;2.05;0.85;;;;;;;23.71;32.63;98843.56;5094933;28;20024;-79
2022/09/18 10:45:26;;;;;;;3.35;0.70;;;;;;;23.94;32.23;98901.38;5093776;28;20408;-79
2022/09/18 10:48:12;;;;;;;2.97;0.95;;;;;;;24.34;31.99;98916.47;5095086;28;20515;-79
2022/09/18 10:50:50;;;;;;;3.08;1.02;;;;;;;23.55;32.35;98828.59;5102773;28;20039;-80
2022/09/18 10:53:41;;;;;;;4.18;0.88;;;;;;;24.25;31.67;98915.44;5100461;28;20024;-79
2022/09/18 10:56:18;;;;;;;2.33;1.00;;;;;;;23.83;31.61;98845.13;5095375;28;20035;-79
2022/09/18 10:58:44;;;;;;;1.35;0.80;;;;;;;24.02;31.66;98854.94;5095784;28;20031;-77
2022/09/18 11:01:12;;;;;;;1.10;0.88;;;;;;;24.09;31.50;98816.84;5094854;28;20040;-78
2022/09/18 11:03:48;;;;;;;3.50;1.17;;;;;;;24.60;31.26;98836.09;5094923;28;20031;-78
2022/09/18 11:06:22;;;;;;;3.22;1.08;;;;;;;25.28;30.65;98913.41;5094675;28;20431;-78
2022/09/18 11:08:51;;;;;;;1.73;1.02;;;;;;;24.81;30.88;98849.34;5094378;28;20024;-78
2022/09/18 11:11:43;;;;;;;1.10;0.80;;;;;;;24.81;30.65;98889.84;5094601;28;20041;-78
2022/09/18 11:14:28;;;;;;;0.90;0.80;;;;;;;24.48;30.77;98862.63;5096156;28;20408;-79
2022/09/18 11:16:59;;;;;;;2.38;0.90;;;;;;;25.12;30.74;98938.97;5115912;28;20031;-78
2022/09/18 11:19:33;;;;;;;1.70;1.17;;;;;;;25.04;30.92;98875.56;5100707;28;20508;-78
2022/09/18 11:22:04;;;;;;;1.65;0.85;;;;;;;25.39;30.09;98878.94;5093571;28;20115;-78
2022/09/18 11:24:32;;;;;;;2.10;0.80;;;;;;;25.72;30.03;98934.72;5093751;28;20020;-77
2022/09/18 11:27:02;;;;;;;2.15;0.90;;;;;;;24.83;29.26;98826.38;5094720;28;20096;-79
2022/09/18 11:29:31;;;;;;;4.72;1.20;;;;;;;25.48;29.88;98902.31;5093148;28;20024;-78
2022/09/18 11:32:16;;;;;;;3.33;0.90;;;;;;;25.91;28.98;98930.13;5093048;28;20028;-77
2022/09/18 11:34:52;;;;;;;6.13;0.98;;;;;;;25.48;29.04;98874.47;5094277;28;20532;-78
2022/09/18 11:37:32;;;;;;;2.28;1.48;;;;;;;25.77;29.03;98899.50;5094097;28;20028;-78
2022/09/18 11:40:40;;;;;;;1.65;1.00;;;;;;;25.96;28.46;98921.94;5093393;28;20405;-78
2022/09/18 11:43:14;;;;;;;4.65;0.93;;;;;;;25.47;28.79;98835.03;5090480;28;20416;-77
2022/09/18 11:45:49;;;;;;;1.95;1.00;;;;;;;25.80;28.87;98923.25;5093949;28;20080;-79
2022/09/18 11:48:36;;;;;;;2.72;0.93;;;;;;;25.59;29.38;98924.59;5092285;28;20491;-77